Time;durP1;ratioP1;P1;durP2;ratioP2;P2;SDS_P1;SDS_P2;PMS_P1;PMS_P2;Temp;Humidity;BMP_temperature;BMP_pressure;BME280_temperature;BME280_humidity;BME280_pressure;Samples;Min_cycle;Max_cycle;Signal;HPM_P1;HPM_P2
2021/08/11 00:00:27;;;;;;;6.03;5.10;;;;;;;11.86;97.05;101651.41;1053865;28;20048;-76
2021/08/11 00:00:59;;;;;;;7.30;4.00;;;;;;;11.87;97.10;101653.16;1057285;28;20529;-76
2021/08/11 00:01:31;;;;;;;5.15;4.20;;;;;;;11.82;97.27;101654.78;1053739;28;20048;-76
2021/08/11 00:02:03;;;;;;;5.43;4.90;;;;;;;11.83;96.55;101659.13;1053181;28;20048;-76
2021/08/11 00:02:35;;;;;;;5.90;4.65;;;;;;;11.91;95.83;101657.59;1049368;28;20048;-76
2021/08/11 00:03:07;;;;;;;4.65;4.25;;;;;;;11.96;95.14;101656.78;1053978;28;20089;-76
2021/08/11 00:03:39;;;;;;;8.63;4.90;;;;;;;11.92;95.56;101658.47;1057514;28;20406;-76
2021/08/11 00:04:11;;;;;;;4.97;4.30;;;;;;;11.88;96.02;101657.50;1052767;28;20048;-77
2021/08/11 00:04:43;;;;;;;7.10;4.78;;;;;;;11.79;96.19;101653.78;1048977;28;20059;-76
2021/08/11 00:05:14;;;;;;;6.53;3.90;;;;;;;11.78;96.63;101660.69;1049658;28;20052;-76
2021/08/11 00:05:46;;;;;;;8.65;4.30;;;;;;;11.81;96.29;101654.72;1053636;28;20048;-77
2021/08/11 00:06:18;;;;;;;7.25;4.70;;;;;;;11.84;96.34;101657.38;1053603;28;20048;-77
2021/08/11 00:06:49;;;;;;;8.75;4.68;;;;;;;11.83;96.50;101653.06;1053223;28;20048;-77
2021/08/11 00:07:20;;;;;;;6.63;4.50;;;;;;;11.81;96.74;101654.72;1048919;28;20045;-76
2021/08/11 00:07:52;;;;;;;6.18;4.20;;;;;;;11.77;96.57;101653.75;1049239;28;20051;-76
2021/08/11 00:08:24;;;;;;;6.93;4.80;;;;;;;11.77;96.66;101655.47;1053442;28;20052;-76
2021/08/11 00:08:55;;;;;;;6.22;5.00;;;;;;;11.70;96.72;101657.06;1053600;28;20044;-76
2021/08/11 00:09:26;;;;;;;5.35;4.38;;;;;;;11.69;97.27;101660.50;1053280;28;20048;-76
2021/08/11 00:09:58;;;;;;;6.03;4.07;;;;;;;11.72;97.25;101652.78;1048938;28;20056;-76
2021/08/11 00:10:29;;;;;;;8.40;4.95;;;;;;;11.76;97.15;101656.31;1045166;28;20060;-76
2021/08/11 00:11:01;;;;;;;5.78;4.93;;;;;;;11.79;96.66;101656.38;1047852;28;20060;-76
2021/08/11 00:11:33;;;;;;;6.93;4.50;;;;;;;11.78;96.68;101657.22;1049110;28;20044;-77
2021/08/11 00:12:05;;;;;;;6.82;4.63;;;;;;;11.80;96.55;101652.94;1053762;28;20220;-76
2021/08/11 00:12:37;;;;;;;9.05;4.70;;;;;;;11.75;96.77;101647.66;1053062;28;20051;-76
2021/08/11 00:13:08;;;;;;;6.15;4.57;;;;;;;11.76;96.48;101657.19;1053302;28;20048;-76
2021/08/11 00:13:40;;;;;;;9.55;4.97;;;;;;;11.77;96.26;101664.13;1049586;28;20048;-76
2021/08/11 00:14:11;;;;;;;8.98;4.50;;;;;;;11.80;96.74;101647.75;1049458;28;20052;-76
2021/08/11 00:14:43;;;;;;;7.90;5.20;;;;;;;11.79;96.49;101646.88;1053102;28;20056;-76
2021/08/11 00:15:15;;;;;;;4.97;4.43;;;;;;;11.76;96.42;101659.78;1053708;28;20436;-75
2021/08/11 00:15:46;;;;;;;6.18;4.15;;;;;;;11.76;96.74;101659.78;1057235;28;20053;-75
2021/08/11 00:16:18;;;;;;;5.32;4.30;;;;;;;11.73;96.35;101651.94;1057517;28;20399;-76
2021/08/11 00:16:49;;;;;;;7.15;4.90;;;;;;;11.74;96.20;101657.97;1057312;28;20048;-76
2021/08/11 00:17:22;;;;;;;5.88;4.90;;;;;;;11.75;95.73;101655.44;1053031;28;20040;-76
2021/08/11 00:17:53;;;;;;;8.00;4.72;;;;;;;11.70;96.46;101649.28;1049414;28;20048;-76
2021/08/11 00:18:25;;;;;;;6.20;4.70;;;;;;;11.68;96.36;101656.13;1048915;28;20053;-77
2021/08/11 00:18:57;;;;;;;5.93;4.63;;;;;;;11.61;96.63;101660.28;1049432;28;20048;-76
2021/08/11 00:19:28;;;;;;;9.30;5.13;;;;;;;11.58;96.26;101651.59;1048909;28;20055;-76
2021/08/11 00:20:00;;;;;;;8.98;5.30;;;;;;;11.59;96.72;101655.94;1048912;28;20055;-76
2021/08/11 00:20:32;;;;;;;9.77;5.43;;;;;;;11.63;96.51;101657.75;1049563;28;20051;-76
2021/08/11 00:21:05;;;;;;;11.68;4.97;;;;;;;11.63;96.54;101656.03;1053685;28;20055;-76
2021/08/11 00:21:36;;;;;;;5.70;4.63;;;;;;;11.60;96.82;101657.69;1054001;28;20506;-76
2021/08/11 00:22:08;;;;;;;5.97;4.70;;;;;;;11.51;96.46;101653.13;1053155;28;20400;-76
2021/08/11 00:22:39;;;;;;;5.95;4.78;;;;;;;11.51;96.92;101650.53;1053144;28;20048;-76
2021/08/11 00:23:11;;;;;;;5.72;4.68;;;;;;;11.56;96.84;101658.44;1053472;28;20056;-76
2021/08/11 00:23:42;;;;;;;8.60;4.90;;;;;;;11.52;96.89;101654.03;1057250;28;20039;-75
2021/08/11 00:24:14;;;;;;;7.15;4.95;;;;;;;11.52;97.12;101654.03;1053705;28;20056;-76
2021/08/11 00:24:45;;;;;;;7.95;4.78;;;;;;;11.55;96.69;101648.91;1057234;28;20056;-76
2021/08/11 00:25:17;;;;;;;8.57;5.20;;;;;;;11.57;96.82;101648.13;1053006;28;20048;-76
2021/08/11 00:25:49;;;;;;;5.63;4.57;;;;;;;11.56;97.22;101654.13;1053611;28;20059;-76
2021/08/11 00:26:21;;;;;;;6.13;4.85;;;;;;;11.55;97.13;101651.50;1057383;28;20492;-76
2021/08/11 00:26:52;;;;;;;7.78;4.68;;;;;;;11.59;96.32;101653.34;1057333;28;20411;-76
2021/08/11 00:27:24;;;;;;;5.75;3.97;;;;;;;11.62;95.91;101659.44;1052951;28;20048;-76
2021/08/11 00:27:55;;;;;;;5.57;4.32;;;;;;;11.52;96.34;101651.44;1052912;28;20052;-76
2021/08/11 00:28:27;;;;;;;6.22;4.82;;;;;;;11.55;97.01;101652.38;1049368;28;20044;-76
2021/08/11 00:28:59;;;;;;;5.20;3.67;;;;;;;11.51;96.48;101652.25;1049310;28;20545;-75
2021/08/11 00:29:30;;;;;;;5.32;4.50;;;;;;;11.43;96.93;101654.69;1048843;28;20064;-76
2021/08/11 00:30:02;;;;;;;5.28;4.70;;;;;;;11.41;97.12;101658.97;1049482;28;20416;-75
2021/08/11 00:30:34;;;;;;;6.72;4.40;;;;;;;11.37;97.17;101657.13;1053123;28;20506;-76
2021/08/11 00:31:05;;;;;;;6.28;4.10;;;;;;;11.40;97.41;101650.31;1049547;28;20048;-76
2021/08/11 00:31:37;;;;;;;6.03;4.40;;;;;;;11.44;97.70;101659.00;1049296;28;20432;-76
2021/08/11 00:32:08;;;;;;;6.03;4.10;;;;;;;11.40;96.95;101658.09;1048886;28;20056;-76
2021/08/11 00:32:40;;;;;;;6.35;4.43;;;;;;;11.45;97.06;101657.28;1049462;28;20071;-75
2021/08/11 00:33:11;;;;;;;6.20;4.57;;;;;;;11.44;96.85;101663.31;1053466;28;20052;-76
2021/08/11 00:33:43;;;;;;;8.20;4.93;;;;;;;11.42;96.93;101658.13;1053334;28;20048;-76
2021/08/11 00:34:14;;;;;;;8.23;4.28;;;;;;;11.45;96.93;101654.72;1053292;28;20044;-76
2021/08/11 00:34:46;;;;;;;8.88;5.05;;;;;;;11.44;96.63;101661.59;1053183;28;20051;-76
2021/08/11 00:35:17;;;;;;;4.88;4.25;;;;;;;11.41;96.76;101659.84;1049280;28;20051;-77
2021/08/11 00:35:49;;;;;;;6.90;4.32;;;;;;;11.42;96.47;101658.13;1053370;28;20055;-76
2021/08/11 00:36:20;;;;;;;6.03;4.55;;;;;;;11.37;96.80;101657.13;1057279;28;20050;-75
2021/08/11 00:36:51;;;;;;;5.95;4.28;;;;;;;11.37;96.75;101652.81;1057300;28;20052;-76
2021/08/11 00:37:23;;;;;;;9.52;4.70;;;;;;;11.35;96.79;101654.50;1053544;28;20107;-76
2021/08/11 00:37:55;;;;;;;5.22;4.15;;;;;;;11.40;97.55;101657.19;1057209;28;20047;-76
2021/08/11 00:38:26;;;;;;;8.20;4.80;;;;;;;11.38;97.39;101654.56;1057030;28;20052;-76
2021/08/11 00:38:58;;;;;;;11.38;5.05;;;;;;;11.34;97.58;101657.03;1053127;28;20385;-76
2021/08/11 00:39:29;;;;;;;12.85;4.30;;;;;;;11.38;97.20;101658.88;1048973;28;20048;-76
2021/08/11 00:40:01;;;;;;;8.90;4.75;;;;;;;11.36;96.85;101661.44;1044854;28;20064;-76
2021/08/11 00:40:32;;;;;;;5.20;4.00;;;;;;;11.37;97.06;101659.72;1049352;28;20393;-76
2021/08/11 00:41:04;;;;;;;9.52;4.50;;;;;;;11.36;97.32;101660.56;1048947;28;20405;-76
2021/08/11 00:41:37;;;;;;;8.15;4.93;;;;;;;11.34;97.21;101660.50;1049131;28;20493;-76
2021/08/11 00:42:08;;;;;;;4.90;4.15;;;;;;;11.34;97.08;101662.22;1049388;28;20053;-76
2021/08/11 00:42:40;;;;;;;4.50;3.92;;;;;;;11.34;96.57;101663.09;1053592;28;20079;-76
2021/08/11 00:43:11;;;;;;;5.97;4.32;;;;;;;11.30;96.55;101656.09;1057294;28;20067;-76
2021/08/11 00:43:43;;;;;;;6.53;3.90;;;;;;;11.27;96.45;101658.59;1057364;28;20047;-76
2021/08/11 00:44:17;;;;;;;6.03;4.38;;;;;;;11.33;96.17;101658.75;1053852;28;20177;-76
2021/08/11 00:44:48;;;;;;;6.47;4.78;;;;;;;11.36;96.10;101664.03;1053053;28;20052;-76
2021/08/11 00:45:20;;;;;;;5.35;3.78;;;;;;;11.36;96.21;101658.84;1052966;28;20424;-76
2021/08/11 00:45:52;;;;;;;6.38;4.93;;;;;;;11.36;96.64;101664.03;1049750;28;20076;-76
2021/08/11 00:46:23;;;;;;;7.65;4.32;;;;;;;11.28;96.06;101665.53;1053404;28;20052;-76
2021/08/11 00:46:55;;;;;;;4.85;4.22;;;;;;;11.30;96.44;101660.41;1053038;28;20047;-75
2021/08/11 00:47:31;;;;;;;6.50;4.93;;;;;;;11.34;96.40;101659.63;1053086;28;20051;-76
2021/08/11 00:48:02;;;;;;;11.05;4.95;;;;;;;11.36;96.06;101660.56;1048826;28;20048;-76
2021/08/11 00:48:36;;;;;;;5.65;4.53;;;;;;;11.38;96.02;101659.75;1049690;28;20075;-76
2021/08/11 00:49:11;;;;;;;6.13;4.65;;;;;;;11.36;96.30;101664.03;1053000;28;20051;-75
2021/08/11 00:49:43;;;;;;;5.88;4.53;;;;;;;11.30;96.18;101665.59;1050052;28;20402;-76
2021/08/11 00:50:15;;;;;;;6.78;4.55;;;;;;;11.30;96.31;101660.41;1054218;28;20044;-76
2021/08/11 00:50:46;;;;;;;5.38;3.88;;;;;;;11.26;96.72;101664.63;1057327;28;20055;-76
2021/08/11 00:51:18;;;;;;;7.15;5.18;;;;;;;11.26;97.00;101668.94;1057779;27;20050;-76
2021/08/11 00:51:50;;;;;;;5.35;4.03;;;;;;;11.26;96.95;101658.56;1061022;27;20054;-76
2021/08/11 00:52:21;;;;;;;7.00;4.50;;;;;;;11.25;97.02;101654.22;1057203;28;20134;-75
2021/08/11 00:52:53;;;;;;;4.78;4.32;;;;;;;11.29;96.80;101658.66;1052929;28;20055;-75
2021/08/11 00:53:27;;;;;;;4.85;4.22;;;;;;;11.25;96.89;101659.41;1052770;28;20056;-75
2021/08/11 00:54:00;;;;;;;6.80;4.60;;;;;;;11.24;96.78;101662.84;1049655;28;20409;-75
2021/08/11 00:54:32;;;;;;;9.30;4.30;;;;;;;11.24;96.26;101663.72;1052716;28;20507;-75
2021/08/11 00:55:04;;;;;;;6.05;4.85;;;;;;;11.24;96.54;101662.84;1054081;28;20064;-76
2021/08/11 00:55:38;;;;;;;6.18;4.22;;;;;;;11.28;96.56;101660.34;1057851;28;20047;-76
2021/08/11 00:56:10;;;;;;;4.30;3.90;;;;;;;11.26;96.39;101656.84;1056900;28;20044;-75
2021/08/11 00:56:45;;;;;;;5.60;3.92;;;;;;;11.25;95.71;101652.50;1056880;28;20181;-75
2021/08/11 00:57:18;;;;;;;5.20;4.70;;;;;;;11.30;95.83;101656.09;1057013;28;20048;-75
2021/08/11 00:57:54;;;;;;;4.80;4.40;;;;;;;11.29;95.99;101653.47;1057016;28;20044;-76
2021/08/11 00:58:26;;;;;;;5.43;4.53;;;;;;;11.23;95.93;101661.06;1056959;28;20054;-76
2021/08/11 00:58:58;;;;;;;6.70;4.53;;;;;;;11.22;96.44;101660.19;1052384;28;20089;-75
2021/08/11 00:59:35;;;;;;;7.05;5.10;;;;;;;11.18;96.56;101660.09;1052646;28;20051;-75
2021/08/11 01:00:07;;;;;;;10.13;5.05;;;;;;;11.21;96.23;101658.44;1054195;28;20052;-76
2021/08/11 01:00:43;;;;;;;8.20;4.47;;;;;;;11.25;96.23;101655.09;1056795;28;20050;-76
2021/08/11 01:01:14;;;;;;;5.72;4.63;;;;;;;11.26;95.79;101661.16;1056966;28;20063;-76
2021/08/11 01:01:50;;;;;;;5.65;4.40;;;;;;;11.18;96.60;101660.97;1052804;28;20044;-76
2021/08/11 01:02:23;;;;;;;6.85;5.35;;;;;;;11.07;97.22;101662.41;1052720;28;20048;-75
2021/08/11 01:02:55;;;;;;;8.93;4.82;;;;;;;11.11;97.44;101661.63;1049667;28;20056;-76
2021/08/11 01:03:29;;;;;;;5.38;4.57;;;;;;;11.11;97.52;101657.31;1054251;28;20059;-75
2021/08/11 01:04:02;;;;;;;7.07;4.65;;;;;;;11.13;97.41;101658.25;1056945;28;20047;-75
2021/08/11 01:04:35;;;;;;;7.63;4.93;;;;;;;11.11;97.48;101662.50;1053688;28;20048;-75
2021/08/11 01:05:07;;;;;;;5.30;4.10;;;;;;;11.09;97.65;101659.00;1056926;28;20055;-75
2021/08/11 01:05:39;;;;;;;6.55;4.15;;;;;;;11.15;97.37;101663.47;1056977;28;20047;-75
2021/08/11 01:06:12;;;;;;;5.93;5.05;;;;;;;11.16;97.01;101662.63;1052706;28;20048;-76
2021/08/11 01:06:44;;;;;;;6.90;4.28;;;;;;;11.17;96.93;101663.50;1052766;28;20043;-75
2021/08/11 01:07:16;;;;;;;6.13;5.00;;;;;;;11.17;96.96;101656.59;1053419;28;20059;-75
2021/08/11 01:07:50;;;;;;;6.47;4.75;;;;;;;11.16;96.68;101657.44;1053337;28;20051;-75
2021/08/11 01:08:22;;;;;;;7.55;5.43;;;;;;;11.12;96.98;101656.50;1056960;28;20130;-76
2021/08/11 01:08:55;;;;;;;5.10;4.60;;;;;;;11.13;96.80;101663.44;1057015;28;20491;-76
2021/08/11 01:09:26;;;;;;;8.07;4.68;;;;;;;11.12;96.69;101659.09;1053439;28;20048;-75
2021/08/11 01:09:59;;;;;;;7.63;5.18;;;;;;;11.08;97.20;101654.69;1057010;28;20501;-75
2021/08/11 01:10:30;;;;;;;5.15;4.30;;;;;;;11.08;97.17;101658.97;1056545;28;20043;-75
2021/08/11 01:11:03;;;;;;;10.82;4.78;;;;;;;11.06;97.13;101658.03;1056837;28;20100;-76
2021/08/11 01:11:36;;;;;;;8.07;5.03;;;;;;;11.02;96.99;101662.28;1056863;28;20059;-76
2021/08/11 01:12:08;;;;;;;5.05;4.15;;;;;;;11.02;97.19;101659.69;1056876;28;20044;-75
2021/08/11 01:12:40;;;;;;;5.25;4.10;;;;;;;11.00;97.39;101663.06;1056918;28;20055;-75
2021/08/11 01:13:13;;;;;;;5.78;5.07;;;;;;;11.02;97.43;101657.09;1056918;28;20047;-76
2021/08/11 01:13:45;;;;;;;7.95;4.82;;;;;;;11.04;97.67;101660.59;1056669;28;20088;-76
2021/08/11 01:14:17;;;;;;;7.63;4.68;;;;;;;11.05;97.65;101654.56;1056730;28;20048;-75
2021/08/11 01:14:50;;;;;;;6.47;4.55;;;;;;;11.05;97.49;101661.47;1056887;28;20545;-76
2021/08/11 01:15:22;;;;;;;6.85;4.50;;;;;;;11.05;97.31;101657.16;1056431;28;20051;-75
2021/08/11 01:15:54;;;;;;;6.57;4.13;;;;;;;11.04;97.76;101670.09;1056737;28;20059;-76
2021/08/11 01:16:26;;;;;;;9.30;4.70;;;;;;;11.02;97.68;101658.81;1056985;28;20115;-76
2021/08/11 01:17:00;;;;;;;7.22;4.05;;;;;;;11.02;97.86;101659.69;1052796;28;20514;-76
2021/08/11 01:17:32;;;;;;;5.10;4.55;;;;;;;11.06;97.65;101666.72;1052597;28;20485;-75
2021/08/11 01:18:04;;;;;;;8.00;4.90;;;;;;;11.01;98.15;101659.66;1052693;28;20059;-75
2021/08/11 01:18:35;;;;;;;7.10;4.72;;;;;;;10.97;97.62;101661.28;1052791;28;20055;-75
2021/08/11 01:19:07;;;;;;;8.52;5.32;;;;;;;10.99;97.59;101664.78;1053188;28;20059;-75
2021/08/11 01:19:39;;;;;;;8.98;4.95;;;;;;;10.98;97.33;101657.84;1056731;28;20051;-76
2021/08/11 01:20:11;;;;;;;8.10;4.50;;;;;;;10.97;97.65;101663.88;1056853;28;20048;-75
2021/08/11 01:20:48;;;;;;;6.75;4.25;;;;;;;10.96;97.72;101663.84;1052574;28;20044;-75
2021/08/11 01:21:33;;;;;;;6.00;4.93;;;;;;;10.97;97.65;101668.19;1052777;28;20055;-76
2021/08/11 01:22:17;;;;;;;11.60;5.50;;;;;;;10.96;97.38;101669.03;1055938;28;20043;-76
2021/08/11 01:23:03;;;;;;;6.07;4.97;;;;;;;10.95;97.60;101667.25;1056884;28;20078;-75
2021/08/11 01:24:07;;;;;;;6.55;4.97;;;;;;;10.99;97.12;101666.50;1057270;28;20051;-75
2021/08/11 01:24:57;;;;;;;5.22;4.68;;;;;;;10.95;97.69;101668.16;1057113;28;20059;-75
2021/08/11 01:25:37;;;;;;;6.85;4.50;;;;;;;10.95;97.80;101665.56;1056687;28;20039;-75
2021/08/11 01:26:19;;;;;;;4.88;4.30;;;;;;;10.95;97.51;101667.25;1056816;28;20044;-76
2021/08/11 01:27:06;;;;;;;7.38;5.13;;;;;;;10.91;97.58;101661.13;1056772;28;20050;-75
2021/08/11 01:28:02;;;;;;;9.73;4.47;;;;;;;10.92;97.32;101660.28;1057161;28;20100;-75
2021/08/11 01:28:45;;;;;;;5.40;4.75;;;;;;;10.92;96.78;101662.00;1056726;28;20055;-76
2021/08/11 01:29:20;;;;;;;5.70;4.88;;;;;;;10.90;97.65;101659.38;1056900;28;20051;-76
2021/08/11 01:30:01;;;;;;;7.60;4.60;;;;;;;10.90;97.91;101658.50;1056745;28;20056;-75
2021/08/11 01:30:56;;;;;;;6.22;4.85;;;;;;;10.84;97.68;101664.41;1056687;28;20519;-75
2021/08/11 01:31:51;;;;;;;6.18;4.18;;;;;;;10.84;97.89;101664.41;1055638;28;20044;-76
2021/08/11 01:32:48;;;;;;;5.57;4.82;;;;;;;10.84;97.66;101667.84;1056847;28;20051;-75
2021/08/11 01:33:46;;;;;;;7.57;4.20;;;;;;;10.83;96.77;101660.94;1055591;28;20503;-75
2021/08/11 01:34:43;;;;;;;6.38;4.97;;;;;;;10.91;96.97;101663.72;1056758;28;20044;-75
2021/08/11 01:35:22;;;;;;;8.63;4.78;;;;;;;10.92;96.83;101659.41;1052541;28;20527;-75
2021/08/11 01:35:59;;;;;;;7.55;5.00;;;;;;;10.93;96.87;101659.44;1053163;28;20062;-75
2021/08/11 01:36:51;;;;;;;7.90;4.60;;;;;;;10.86;96.85;101661.00;1052541;28;20048;-75
2021/08/11 01:37:29;;;;;;;5.50;4.60;;;;;;;10.89;97.21;101665.38;1056950;28;20537;-75
2021/08/11 01:38:05;;;;;;;5.53;4.78;;;;;;;10.91;97.39;101668.03;1052564;28;20044;-76
2021/08/11 01:38:40;;;;;;;10.65;5.15;;;;;;;10.86;97.47;101660.13;1056774;28;20062;-75
2021/08/11 01:39:21;;;;;;;5.60;4.57;;;;;;;10.91;96.94;101661.13;1056587;28;20044;-77
2021/08/11 01:39:57;;;;;;;4.75;4.10;;;;;;;10.97;97.10;101663.88;1048595;28;20052;-75
2021/08/11 01:40:31;;;;;;;6.70;4.28;;;;;;;10.96;96.44;101667.31;1048326;28;20049;-76
2021/08/11 01:41:06;;;;;;;5.28;4.63;;;;;;;10.88;96.78;101664.50;1048418;28;20542;-75
2021/08/11 01:41:45;;;;;;;5.82;4.82;;;;;;;10.83;96.79;101671.28;1046070;28;20056;-76
2021/08/11 01:42:29;;;;;;;6.38;4.57;;;;;;;10.80;96.94;101671.19;1046710;28;20056;-76
2021/08/11 01:43:03;;;;;;;4.93;4.43;;;;;;;10.78;96.80;101672.88;1051911;28;20047;-75
2021/08/11 01:43:44;;;;;;;7.20;4.88;;;;;;;10.78;96.69;101670.28;1056100;28;20052;-75
2021/08/11 01:44:21;;;;;;;11.00;5.28;;;;;;;10.77;97.00;101667.63;1057227;28;20047;-75
2021/08/11 01:45:06;;;;;;;7.63;4.75;;;;;;;10.75;97.46;101677.06;1056638;28;20430;-75
2021/08/11 01:45:42;;;;;;;8.90;4.65;;;;;;;10.71;97.69;101670.06;1052664;28;20389;-75
2021/08/11 01:46:16;;;;;;;8.88;5.07;;;;;;;10.72;97.63;101671.78;1052561;28;20052;-75
2021/08/11 01:46:49;;;;;;;5.72;4.80;;;;;;;10.75;97.77;101674.47;1055555;28;20055;-75
2021/08/11 01:47:25;;;;;;;5.22;4.20;;;;;;;10.74;97.77;101665.84;1056869;28;20083;-75
2021/08/11 01:48:05;;;;;;;4.95;4.35;;;;;;;10.77;97.63;101668.50;1056643;28;20526;-75
2021/08/11 01:48:38;;;;;;;6.03;4.70;;;;;;;10.78;97.77;101661.66;1052682;28;20044;-75
2021/08/11 01:49:13;;;;;;;5.75;5.03;;;;;;;10.77;98.06;101665.91;1055052;28;20059;-75
2021/08/11 01:49:47;;;;;;;5.72;5.05;;;;;;;10.72;98.23;101666.63;1052274;28;20044;-75
2021/08/11 01:50:20;;;;;;;4.63;4.18;;;;;;;10.76;97.49;101665.88;1052652;28;20074;-76
2021/08/11 01:50:53;;;;;;;7.00;4.70;;;;;;;10.78;97.25;101665.09;1052593;28;20055;-75
2021/08/11 01:51:25;;;;;;;6.63;4.78;;;;;;;10.80;97.47;101670.31;1054169;28;20052;-75
2021/08/11 01:51:57;;;;;;;8.35;5.07;;;;;;;10.78;97.34;101661.66;1056862;28;20048;-75
2021/08/11 01:52:29;;;;;;;5.85;4.32;;;;;;;10.80;97.59;101665.13;1053429;28;20063;-75
2021/08/11 01:53:01;;;;;;;5.13;3.95;;;;;;;10.78;97.66;101665.09;1056800;28;20043;-75
2021/08/11 01:53:33;;;;;;;4.45;4.00;;;;;;;10.79;97.68;101671.16;1052334;28;20044;-75
2021/08/11 01:54:08;;;;;;;7.43;5.25;;;;;;;10.81;96.96;101666.88;1053245;28;20048;-75
2021/08/11 01:54:42;;;;;;;5.18;4.68;;;;;;;10.81;96.35;101666.88;1056762;28;20058;-75
2021/08/11 01:55:14;;;;;;;4.97;4.47;;;;;;;10.81;96.49;101664.28;1056783;28;20058;-76
2021/08/11 01:55:51;;;;;;;7.68;4.53;;;;;;;10.79;96.52;101664.25;1019449;28;1069510;-75
2021/08/11 01:56:23;;;;;;;5.55;4.57;;;;;;;10.78;96.58;101659.06;1056957;28;20051;-75
2021/08/11 01:56:56;;;;;;;8.82;4.30;;;;;;;10.75;97.34;101657.25;1052666;28;20059;-75
2021/08/11 01:57:28;;;;;;;7.07;4.80;;;;;;;10.78;97.53;101664.22;1048505;28;20048;-75
2021/08/11 01:58:01;;;;;;;5.75;3.83;;;;;;;10.79;97.31;101663.38;1049483;28;20045;-75
2021/08/11 01:58:35;;;;;;;4.72;4.28;;;;;;;10.76;96.63;101663.28;1054122;28;20442;-75
2021/08/11 01:59:08;;;;;;;6.07;5.13;;;;;;;10.78;97.03;101666.81;1053823;28;20048;-75
2021/08/11 01:59:41;;;;;;;5.30;4.57;;;;;;;10.75;97.25;101661.53;1052389;28;20059;-76
2021/08/11 02:00:15;;;;;;;6.55;4.38;;;;;;;10.72;97.60;101664.94;1052596;28;20048;-75
2021/08/11 02:00:47;;;;;;;6.78;5.25;;;;;;;10.65;97.91;101665.59;1054088;28;20489;-75
2021/08/11 02:01:19;;;;;;;5.13;4.47;;;;;;;10.68;97.67;101665.69;1056711;28;20538;-75
2021/08/11 02:01:51;;;;;;;7.75;5.03;;;;;;;10.73;97.68;101664.09;1056952;28;20093;-75
2021/08/11 02:02:23;;;;;;;6.78;4.43;;;;;;;10.76;97.64;101665.88;1057369;28;20055;-75
2021/08/11 02:02:56;;;;;;;8.80;5.45;;;;;;;10.75;97.65;101665.00;1057249;28;20172;-75
2021/08/11 02:03:29;;;;;;;6.30;4.38;;;;;;;10.74;97.73;101668.44;1056972;28;20114;-75
2021/08/11 02:04:01;;;;;;;6.50;4.80;;;;;;;10.70;97.74;101671.75;1052595;28;20109;-75
2021/08/11 02:04:35;;;;;;;6.22;4.50;;;;;;;10.61;97.90;101676.69;1048474;28;20044;-75
2021/08/11 02:05:11;;;;;;;5.30;4.35;;;;;;;10.57;97.55;101672.28;1049666;28;20048;-76
2021/08/11 02:05:44;;;;;;;6.90;4.47;;;;;;;10.59;97.81;101665.41;1053963;28;20043;-75
2021/08/11 02:06:16;;;;;;;5.65;4.28;;;;;;;10.59;97.38;101665.41;1052532;28;20055;-75
2021/08/11 02:06:48;;;;;;;4.43;4.00;;;;;;;10.64;97.08;101669.00;1048526;28;20045;-75
2021/08/11 02:07:19;;;;;;;6.63;4.72;;;;;;;10.66;97.62;101667.31;1048426;28;20052;-76
2021/08/11 02:07:51;;;;;;;13.32;5.15;;;;;;;10.69;96.85;101670.03;1049003;28;20053;-75
2021/08/11 02:08:24;;;;;;;6.18;4.60;;;;;;;10.65;97.27;101660.41;1049010;28;20452;-76
2021/08/11 02:08:57;;;;;;;6.40;4.80;;;;;;;10.64;97.63;101665.53;1053412;28;20059;-75
2021/08/11 02:09:29;;;;;;;6.80;4.75;;;;;;;10.59;97.48;101660.25;1056533;28;20055;-75
2021/08/11 02:10:02;;;;;;;9.50;4.80;;;;;;;10.57;97.44;101659.34;1053642;28;20048;-76
2021/08/11 02:10:34;;;;;;;7.07;5.68;;;;;;;10.58;97.89;101666.25;1056962;28;20051;-76
2021/08/11 02:11:06;;;;;;;7.32;4.45;;;;;;;10.60;97.63;101655.09;1052749;28;20048;-76
2021/08/11 02:11:40;;;;;;;4.90;4.40;;;;;;;10.58;97.79;101656.78;1049280;28;20040;-75
2021/08/11 02:12:13;;;;;;;7.95;5.72;;;;;;;10.58;98.12;101661.06;1052630;28;20135;-75
2021/08/11 02:12:45;;;;;;;5.75;4.43;;;;;;;10.54;97.82;101654.06;1052654;28;20516;-76
2021/08/11 02:13:17;;;;;;;8.13;4.85;;;;;;;10.51;97.98;101659.16;1053603;28;20126;-75
2021/08/11 02:13:49;;;;;;;7.22;5.55;;;;;;;10.52;97.87;101664.38;1052751;28;20048;-75
2021/08/11 02:14:21;;;;;;;10.82;5.90;;;;;;;10.49;97.79;101661.69;1056226;28;20056;-75
2021/08/11 02:14:53;;;;;;;6.13;5.25;;;;;;;10.51;97.88;101666.91;1057304;28;20407;-74
2021/08/11 02:15:25;;;;;;;6.93;5.65;;;;;;;10.52;98.18;101660.91;1057251;28;20189;-75
2021/08/11 02:15:56;;;;;;;7.82;5.95;;;;;;;10.49;98.01;101666.84;1056904;28;20047;-75
2021/08/11 02:16:28;;;;;;;5.53;3.85;;;;;;;10.44;98.08;101665.88;1052522;28;20048;-75
2021/08/11 02:16:59;;;;;;;7.47;5.53;;;;;;;10.46;97.84;101663.31;1052594;28;20094;-75
2021/08/11 02:17:31;;;;;;;7.82;4.72;;;;;;;10.46;97.78;101656.44;1053112;28;20052;-75
2021/08/11 02:18:03;;;;;;;5.18;4.68;;;;;;;10.49;97.94;101660.81;1053139;28;20060;-75
2021/08/11 02:18:35;;;;;;;7.78;5.03;;;;;;;10.51;98.29;101664.34;1052689;28;20134;-75
2021/08/11 02:19:10;;;;;;;6.15;4.82;;;;;;;10.48;98.17;101661.66;1048429;28;20060;-75
2021/08/11 02:19:41;;;;;;;7.53;4.90;;;;;;;10.48;98.23;101652.16;1049078;28;20519;-74
2021/08/11 02:20:15;;;;;;;4.80;4.30;;;;;;;10.46;98.37;101659.03;1052651;28;20047;-75
2021/08/11 02:20:46;;;;;;;7.03;4.93;;;;;;;10.45;98.26;101656.41;1049457;28;20059;-75
2021/08/11 02:21:20;;;;;;;7.60;5.07;;;;;;;10.47;97.79;101658.19;1053330;28;20050;-75
2021/08/11 02:21:51;;;;;;;5.38;4.88;;;;;;;10.50;97.91;101652.25;1052543;28;20055;-75
2021/08/11 02:22:23;;;;;;;5.78;5.18;;;;;;;10.50;97.90;101666.06;1052094;28;20052;-75
2021/08/11 02:22:54;;;;;;;6.90;4.70;;;;;;;10.47;98.42;101658.19;1048339;28;20063;-75
2021/08/11 02:23:26;;;;;;;5.00;4.47;;;;;;;10.48;98.05;101664.22;1044665;28;20060;-75
2021/08/11 02:23:58;;;;;;;8.45;5.30;;;;;;;10.47;98.13;101665.06;1048866;28;20528;-75
2021/08/11 02:24:29;;;;;;;6.90;4.63;;;;;;;10.48;97.83;101667.69;1048993;28;20052;-75
2021/08/11 02:25:06;;;;;;;5.93;5.25;;;;;;;10.43;98.44;101668.41;1053119;28;20048;-75
2021/08/11 02:25:47;;;;;;;6.38;4.43;;;;;;;10.44;98.90;101665.88;1056865;28;20047;-75
2021/08/11 02:26:27;;;;;;;6.72;4.93;;;;;;;10.34;98.84;101669.91;1052808;28;20055;-75
2021/08/11 02:27:01;;;;;;;;;;;;;;;10.41;98.58;101670.06;1056701;28;20056;-75
2021/08/11 02:27:40;;;;;;;6.35;4.55;;;;;;;10.40;98.26;101664.03;1056868;28;19924;-75
2021/08/11 02:28:19;;;;;;;6.68;4.43;;;;;;;10.35;97.78;101669.06;1052755;28;20059;-75
2021/08/11 02:28:59;;;;;;;6.75;4.38;;;;;;;10.38;98.09;101660.53;1052527;28;20051;-76
2021/08/11 02:29:58;;;;;;;7.47;4.40;;;;;;;10.37;97.96;101660.47;1056137;28;20050;-75
2021/08/11 02:30:55;;;;;;;6.20;4.22;;;;;;;10.41;97.96;101659.72;1059876;27;20043;-75
2021/08/11 02:31:27;;;;;;;5.32;4.13;;;;;;;10.47;98.14;101665.06;1052561;28;20052;-76
2021/08/11 02:32:15;;;;;;;7.13;4.40;;;;;;;10.39;98.30;101659.69;1054457;28;20051;-75
2021/08/11 02:32:59;;;;;;;7.00;4.15;;;;;;;10.43;97.26;101653.75;1056681;28;20043;-75
2021/08/11 02:33:53;;;;;;;4.90;4.28;;;;;;;10.42;97.07;101657.19;1056978;28;20040;-75
2021/08/11 02:34:40;;;;;;;6.88;4.80;;;;;;;10.42;98.07;101653.72;1056854;28;20054;-75
2021/08/11 02:35:26;;;;;;;5.88;4.93;;;;;;;10.44;97.38;101655.53;1056767;28;20051;-75
2021/08/11 02:36:03;;;;;;;5.55;4.55;;;;;;;10.43;97.99;101655.47;1056887;28;20054;-75
2021/08/11 02:36:49;;;;;;;5.80;4.57;;;;;;;10.35;98.35;101650.09;1057296;28;20373;-75
2021/08/11 02:37:30;;;;;;;6.35;4.97;;;;;;;10.35;98.36;101647.50;1052553;28;20044;-75
2021/08/11 02:38:03;;;;;;;5.82;4.35;;;;;;;10.38;98.57;101646.69;1048603;28;20377;-75
2021/08/11 02:38:38;;;;;;;7.38;5.28;;;;;;;10.39;98.22;101649.34;1050629;28;20064;-75
2021/08/11 02:39:13;;;;;;;7.05;5.07;;;;;;;10.33;97.86;101656.94;1050776;28;20044;-76
2021/08/11 02:40:02;;;;;;;6.60;4.85;;;;;;;10.37;98.26;101650.13;1049965;28;20040;-75
2021/08/11 02:40:43;;;;;;;7.93;5.20;;;;;;;10.35;99.03;101652.66;1048412;28;20044;-74